sensor_id;sensor_type;location;lat;lon;timestamp;temperature;humidity
13596;DHT22;6868;52.544;13.416;2022-10-13T00:00:40;8.40;99.90
13596;DHT22;6868;52.544;13.416;2022-10-13T00:03:08;8.40;99.90
13596;DHT22;6868;52.544;13.416;2022-10-13T00:05:38;8.40;99.90
13596;DHT22;6868;52.544;13.416;2022-10-13T00:08:08;8.40;99.90
13596;DHT22;6868;52.544;13.416;2022-10-13T00:10:37;8.40;99.90
13596;DHT22;6868;52.544;13.416;2022-10-13T00:13:04;8.40;99.90
13596;DHT22;6868;52.544;13.416;2022-10-13T00:15:30;8.40;99.90
13596;DHT22;6868;52.544;13.416;2022-10-13T00:17:57;8.40;99.90
13596;DHT22;6868;52.544;13.416;2022-10-13T00:20:24;8.40;99.90
13596;DHT22;6868;52.544;13.416;2022-10-13T00:22:51;8.40;99.90
13596;DHT22;6868;52.544;13.416;2022-10-13T00:25:17;8.40;99.90
13596;DHT22;6868;52.544;13.416;2022-10-13T00:27:45;8.40;99.90
13596;DHT22;6868;52.544;13.416;2022-10-13T00:30:12;8.40;99.90
13596;DHT22;6868;52.544;13.416;2022-10-13T00:32:38;8.40;99.90
13596;DHT22;6868;52.544;13.416;2022-10-13T00:35:05;8.30;99.90
13596;DHT22;6868;52.544;13.416;2022-10-13T00:37:32;8.40;99.90
13596;DHT22;6868;52.544;13.416;2022-10-13T00:39:59;8.40;99.90
13596;DHT22;6868;52.544;13.416;2022-10-13T00:42:25;8.30;99.90
13596;DHT22;6868;52.544;13.416;2022-10-13T00:45:04;8.30;99.90
13596;DHT22;6868;52.544;13.416;2022-10-13T00:47:33;8.30;99.90
13596;DHT22;6868;52.544;13.416;2022-10-13T00:50:01;8.30;99.90
13596;DHT22;6868;52.544;13.416;2022-10-13T00:52:29;8.30;99.90
13596;DHT22;6868;52.544;13.416;2022-10-13T00:54:56;8.20;99.90
13596;DHT22;6868;52.544;13.416;2022-10-13T00:57:23;8.20;99.90
13596;DHT22;6868;52.544;13.416;2022-10-13T00:59:52;8.30;99.90
13596;DHT22;6868;52.544;13.416;2022-10-13T01:02:21;8.10;99.90
13596;DHT22;6868;52.544;13.416;2022-10-13T01:04:48;8.10;99.90
13596;DHT22;6868;52.544;13.416;2022-10-13T01:07:15;8.10;99.90
13596;DHT22;6868;52.544;13.416;2022-10-13T01:09:44;8.10;99.90
13596;DHT22;6868;52.544;13.416;2022-10-13T01:12:15;8.10;99.90
13596;DHT22;6868;52.544;13.416;2022-10-13T01:14:46;8.10;99.90
13596;DHT22;6868;52.544;13.416;2022-10-13T01:17:20;8.00;99.90
13596;DHT22;6868;52.544;13.416;2022-10-13T01:19:59;8.00;99.90
13596;DHT22;6868;52.544;13.416;2022-10-13T01:22:44;8.00;99.90
13596;DHT22;6868;52.544;13.416;2022-10-13T01:25:24;8.00;99.90
13596;DHT22;6868;52.544;13.416;2022-10-13T01:28:01;7.90;99.90
13596;DHT22;6868;52.544;13.416;2022-10-13T01:30:32;7.90;99.90
13596;DHT22;6868;52.544;13.416;2022-10-13T01:33:03;7.90;99.90
13596;DHT22;6868;52.544;13.416;2022-10-13T01:35:40;7.90;99.90
13596;DHT22;6868;52.544;13.416;2022-10-13T01:38:11;7.90;99.90
13596;DHT22;6868;52.544;13.416;2022-10-13T01:40:41;7.90;99.90
13596;DHT22;6868;52.544;13.416;2022-10-13T01:43:10;7.90;99.90
13596;DHT22;6868;52.544;13.416;2022-10-13T01:45:39;7.90;99.90
13596;DHT22;6868;52.544;13.416;2022-10-13T01:48:07;7.80;99.90
13596;DHT22;6868;52.544;13.416;2022-10-13T01:50:37;7.80;99.90
13596;DHT22;6868;52.544;13.416;2022-10-13T01:53:04;7.80;99.90
13596;DHT22;6868;52.544;13.416;2022-10-13T01:55:32;7.80;99.90
13596;DHT22;6868;52.544;13.416;2022-10-13T01:57:59;7.80;99.90
13596;DHT22;6868;52.544;13.416;2022-10-13T02:00:26;7.80;99.90
13596;DHT22;6868;52.544;13.416;2022-10-13T02:03:00;7.70;99.90
13596;DHT22;6868;52.544;13.416;2022-10-13T02:05:33;7.70;99.90
13596;DHT22;6868;52.544;13.416;2022-10-13T02:08:04;7.80;99.90
13596;DHT22;6868;52.544;13.416;2022-10-13T02:10:33;7.70;99.90
13596;DHT22;6868;52.544;13.416;2022-10-13T02:13:05;7.80;99.90
13596;DHT22;6868;52.544;13.416;2022-10-13T02:15:33;7.80;99.90
13596;DHT22;6868;52.544;13.416;2022-10-13T02:18:04;7.90;99.90
13596;DHT22;6868;52.544;13.416;2022-10-13T02:20:32;7.80;99.90
13596;DHT22;6868;52.544;13.416;2022-10-13T02:22:59;7.70;99.90
13596;DHT22;6868;52.544;13.416;2022-10-13T02:25:27;7.70;99.90
13596;DHT22;6868;52.544;13.416;2022-10-13T02:27:54;7.70;99.90
13596;DHT22;6868;52.544;13.416;2022-10-13T02:30:24;7.70;99.90
13596;DHT22;6868;52.544;13.416;2022-10-13T02:32:54;7.70;99.90
13596;DHT22;6868;52.544;13.416;2022-10-13T02:35:28;7.60;99.90
13596;DHT22;6868;52.544;13.416;2022-10-13T02:37:57;7.60;99.90
13596;DHT22;6868;52.544;13.416;2022-10-13T02:40:24;7.60;99.90
13596;DHT22;6868;52.544;13.416;2022-10-13T02:42:50;7.60;99.90
13596;DHT22;6868;52.544;13.416;2022-10-13T02:45:17;7.60;99.90
13596;DHT22;6868;52.544;13.416;2022-10-13T02:47:44;7.50;99.90
13596;DHT22;6868;52.544;13.416;2022-10-13T02:50:11;7.50;99.90
13596;DHT22;6868;52.544;13.416;2022-10-13T02:52:42;7.50;99.90
13596;DHT22;6868;52.544;13.416;2022-10-13T02:55:10;7.50;99.90
13596;DHT22;6868;52.544;13.416;2022-10-13T02:57:36;7.40;99.90
13596;DHT22;6868;52.544;13.416;2022-10-13T03:00:03;7.40;99.90
13596;DHT22;6868;52.544;13.416;2022-10-13T03:02:33;7.40;99.90
13596;DHT22;6868;52.544;13.416;2022-10-13T03:05:00;7.40;99.90
13596;DHT22;6868;52.544;13.416;2022-10-13T03:07:27;7.30;99.90
13596;DHT22;6868;52.544;13.416;2022-10-13T03:09:55;7.30;99.90
13596;DHT22;6868;52.544;13.416;2022-10-13T03:12:21;7.30;99.90
13596;DHT22;6868;52.544;13.416;2022-10-13T03:14:48;7.40;99.90
13596;DHT22;6868;52.544;13.416;2022-10-13T03:17:22;7.30;99.90
13596;DHT22;6868;52.544;13.416;2022-10-13T03:19:50;7.30;99.90
13596;DHT22;6868;52.544;13.416;2022-10-13T03:24:45;7.40;99.90
13596;DHT22;6868;52.544;13.416;2022-10-13T03:27:14;7.40;99.90
13596;DHT22;6868;52.544;13.416;2022-10-13T03:29:41;7.30;99.90
13596;DHT22;6868;52.544;13.416;2022-10-13T03:32:07;7.30;99.90
13596;DHT22;6868;52.544;13.416;2022-10-13T03:34:34;7.30;99.90
13596;DHT22;6868;52.544;13.416;2022-10-13T03:37:01;7.30;99.90
13596;DHT22;6868;52.544;13.416;2022-10-13T03:39:27;7.30;99.90
13596;DHT22;6868;52.544;13.416;2022-10-13T03:41:54;7.30;99.90
13596;DHT22;6868;52.544;13.416;2022-10-13T03:44:22;7.30;99.90
13596;DHT22;6868;52.544;13.416;2022-10-13T03:46:49;7.30;99.90
13596;DHT22;6868;52.544;13.416;2022-10-13T03:49:15;7.30;99.90
13596;DHT22;6868;52.544;13.416;2022-10-13T03:51:43;7.30;99.90
13596;DHT22;6868;52.544;13.416;2022-10-13T03:54:10;7.30;99.90
13596;DHT22;6868;52.544;13.416;2022-10-13T03:56:37;7.30;99.90
13596;DHT22;6868;52.544;13.416;2022-10-13T03:59:04;7.30;99.90
13596;DHT22;6868;52.544;13.416;2022-10-13T04:01:32;7.20;99.90
13596;DHT22;6868;52.544;13.416;2022-10-13T04:03:59;7.30;99.90
13596;DHT22;6868;52.544;13.416;2022-10-13T04:06:27;7.40;99.90
13596;DHT22;6868;52.544;13.416;2022-10-13T04:08:54;7.40;99.90
13596;DHT22;6868;52.544;13.416;2022-10-13T04:11:21;7.40;99.90
13596;DHT22;6868;52.544;13.416;2022-10-13T04:13:48;7.40;99.90
13596;DHT22;6868;52.544;13.416;2022-10-13T04:16:15;7.50;99.90
13596;DHT22;6868;52.544;13.416;2022-10-13T04:18:44;7.50;99.90
13596;DHT22;6868;52.544;13.416;2022-10-13T04:21:12;7.50;99.90
13596;DHT22;6868;52.544;13.416;2022-10-13T04:23:39;7.60;99.90
13596;DHT22;6868;52.544;13.416;2022-10-13T04:26:05;7.50;99.90
13596;DHT22;6868;52.544;13.416;2022-10-13T04:28:33;7.60;99.90
13596;DHT22;6868;52.544;13.416;2022-10-13T04:31:00;7.60;99.90
13596;DHT22;6868;52.544;13.416;2022-10-13T04:33:27;7.70;99.90
13596;DHT22;6868;52.544;13.416;2022-10-13T04:35:55;7.80;99.90
13596;DHT22;6868;52.544;13.416;2022-10-13T04:38:22;7.80;99.90
13596;DHT22;6868;52.544;13.416;2022-10-13T04:40:49;7.70;99.90
13596;DHT22;6868;52.544;13.416;2022-10-13T04:43:16;7.80;99.90
13596;DHT22;6868;52.544;13.416;2022-10-13T04:45:43;7.80;99.90
13596;DHT22;6868;52.544;13.416;2022-10-13T04:48:11;7.80;99.90
13596;DHT22;6868;52.544;13.416;2022-10-13T04:50:38;7.80;99.90
13596;DHT22;6868;52.544;13.416;2022-10-13T04:53:06;7.70;99.90
13596;DHT22;6868;52.544;13.416;2022-10-13T04:55:34;7.70;99.90
13596;DHT22;6868;52.544;13.416;2022-10-13T04:58:01;7.70;99.90
13596;DHT22;6868;52.544;13.416;2022-10-13T05:00:30;7.70;99.90
13596;DHT22;6868;52.544;13.416;2022-10-13T05:02:56;7.70;99.90
13596;DHT22;6868;52.544;13.416;2022-10-13T05:05:23;7.80;99.90
13596;DHT22;6868;52.544;13.416;2022-10-13T05:07:50;7.80;99.90
13596;DHT22;6868;52.544;13.416;2022-10-13T05:10:18;7.80;99.90
13596;DHT22;6868;52.544;13.416;2022-10-13T05:12:46;7.80;99.90
13596;DHT22;6868;52.544;13.416;2022-10-13T05:15:13;7.90;99.90
13596;DHT22;6868;52.544;13.416;2022-10-13T05:17:40;7.80;99.90
13596;DHT22;6868;52.544;13.416;2022-10-13T05:20:08;7.80;99.90
13596;DHT22;6868;52.544;13.416;2022-10-13T05:22:35;7.90;99.90
13596;DHT22;6868;52.544;13.416;2022-10-13T05:25:02;7.80;99.90
13596;DHT22;6868;52.544;13.416;2022-10-13T05:27:30;7.80;99.90
13596;DHT22;6868;52.544;13.416;2022-10-13T05:29:57;7.80;99.90
13596;DHT22;6868;52.544;13.416;2022-10-13T05:32:25;7.80;99.90
13596;DHT22;6868;52.544;13.416;2022-10-13T05:34:54;7.80;99.90
13596;DHT22;6868;52.544;13.416;2022-10-13T05:37:21;7.80;99.90
13596;DHT22;6868;52.544;13.416;2022-10-13T05:39:48;7.80;99.90
13596;DHT22;6868;52.544;13.416;2022-10-13T05:42:15;7.90;99.90
13596;DHT22;6868;52.544;13.416;2022-10-13T05:44:43;7.90;99.90
13596;DHT22;6868;52.544;13.416;2022-10-13T05:47:12;7.90;99.90
13596;DHT22;6868;52.544;13.416;2022-10-13T05:49:39;7.90;99.90
13596;DHT22;6868;52.544;13.416;2022-10-13T05:52:07;8.00;99.90
13596;DHT22;6868;52.544;13.416;2022-10-13T05:54:35;8.00;99.90
13596;DHT22;6868;52.544;13.416;2022-10-13T05:57:04;8.00;99.90
13596;DHT22;6868;52.544;13.416;2022-10-13T05:59:34;8.10;99.90
13596;DHT22;6868;52.544;13.416;2022-10-13T06:02:04;8.10;99.90
13596;DHT22;6868;52.544;13.416;2022-10-13T06:04:37;8.20;99.90
13596;DHT22;6868;52.544;13.416;2022-10-13T06:07:05;8.30;99.90
13596;DHT22;6868;52.544;13.416;2022-10-13T06:09:34;8.30;99.90
13596;DHT22;6868;52.544;13.416;2022-10-13T06:12:02;8.40;99.90
13596;DHT22;6868;52.544;13.416;2022-10-13T06:14:29;8.50;99.90
13596;DHT22;6868;52.544;13.416;2022-10-13T06:16:56;8.60;99.90
13596;DHT22;6868;52.544;13.416;2022-10-13T06:19:24;8.70;99.90
13596;DHT22;6868;52.544;13.416;2022-10-13T06:21:51;8.70;99.90
13596;DHT22;6868;52.544;13.416;2022-10-13T06:24:18;8.70;99.90
13596;DHT22;6868;52.544;13.416;2022-10-13T06:26:44;8.70;99.90
13596;DHT22;6868;52.544;13.416;2022-10-13T06:29:11;8.80;99.90
13596;DHT22;6868;52.544;13.416;2022-10-13T06:31:38;8.70;99.90
13596;DHT22;6868;52.544;13.416;2022-10-13T06:34:05;8.50;99.90
13596;DHT22;6868;52.544;13.416;2022-10-13T06:36:33;8.60;99.90
13596;DHT22;6868;52.544;13.416;2022-10-13T06:39:00;8.60;99.90
13596;DHT22;6868;52.544;13.416;2022-10-13T06:41:28;8.60;99.90
13596;DHT22;6868;52.544;13.416;2022-10-13T06:43:54;8.60;99.90
13596;DHT22;6868;52.544;13.416;2022-10-13T06:46:21;8.70;99.90
13596;DHT22;6868;52.544;13.416;2022-10-13T06:48:48;8.70;99.90
13596;DHT22;6868;52.544;13.416;2022-10-13T06:51:15;8.70;99.90
13596;DHT22;6868;52.544;13.416;2022-10-13T06:53:46;8.80;99.90
13596;DHT22;6868;52.544;13.416;2022-10-13T06:56:13;8.90;99.90
13596;DHT22;6868;52.544;13.416;2022-10-13T06:58:40;8.90;99.90
13596;DHT22;6868;52.544;13.416;2022-10-13T07:01:07;8.90;99.90
13596;DHT22;6868;52.544;13.416;2022-10-13T07:03:33;9.00;99.90
13596;DHT22;6868;52.544;13.416;2022-10-13T07:06:00;9.10;99.90
13596;DHT22;6868;52.544;13.416;2022-10-13T07:08:27;9.20;99.90
13596;DHT22;6868;52.544;13.416;2022-10-13T07:10:58;9.40;99.90
13596;DHT22;6868;52.544;13.416;2022-10-13T07:13:25;9.60;99.90
13596;DHT22;6868;52.544;13.416;2022-10-13T07:15:51;9.70;99.90
13596;DHT22;6868;52.544;13.416;2022-10-13T07:18:20;9.80;99.90
13596;DHT22;6868;52.544;13.416;2022-10-13T07:20:47;9.90;99.90
13596;DHT22;6868;52.544;13.416;2022-10-13T07:23:14;9.90;99.90
13596;DHT22;6868;52.544;13.416;2022-10-13T07:25:40;10.00;99.90
13596;DHT22;6868;52.544;13.416;2022-10-13T07:28:08;10.00;99.90
13596;DHT22;6868;52.544;13.416;2022-10-13T07:30:37;10.00;99.90
13596;DHT22;6868;52.544;13.416;2022-10-13T07:33:04;10.10;99.90
13596;DHT22;6868;52.544;13.416;2022-10-13T07:35:30;10.10;99.90
13596;DHT22;6868;52.544;13.416;2022-10-13T07:37:57;10.30;99.90
13596;DHT22;6868;52.544;13.416;2022-10-13T07:40:24;10.50;99.90
13596;DHT22;6868;52.544;13.416;2022-10-13T07:42:51;10.60;99.90
13596;DHT22;6868;52.544;13.416;2022-10-13T07:45:19;10.60;99.90
13596;DHT22;6868;52.544;13.416;2022-10-13T07:47:46;10.50;99.90
13596;DHT22;6868;52.544;13.416;2022-10-13T07:50:12;10.50;99.90
13596;DHT22;6868;52.544;13.416;2022-10-13T07:52:39;10.70;99.90
13596;DHT22;6868;52.544;13.416;2022-10-13T07:55:06;10.80;99.90
13596;DHT22;6868;52.544;13.416;2022-10-13T07:57:33;11.10;99.90
13596;DHT22;6868;52.544;13.416;2022-10-13T08:00:00;11.10;99.90
13596;DHT22;6868;52.544;13.416;2022-10-13T08:02:28;11.30;99.90
13596;DHT22;6868;52.544;13.416;2022-10-13T08:05:03;11.30;99.90
13596;DHT22;6868;52.544;13.416;2022-10-13T08:07:30;11.50;99.90
13596;DHT22;6868;52.544;13.416;2022-10-13T08:09:57;11.60;99.90
13596;DHT22;6868;52.544;13.416;2022-10-13T08:12:24;11.90;99.90
13596;DHT22;6868;52.544;13.416;2022-10-13T08:14:53;12.20;99.90
13596;DHT22;6868;52.544;13.416;2022-10-13T08:19:51;12.40;99.90
13596;DHT22;6868;52.544;13.416;2022-10-13T08:22:18;12.50;99.90
13596;DHT22;6868;52.544;13.416;2022-10-13T08:24:44;12.40;99.90
13596;DHT22;6868;52.544;13.416;2022-10-13T08:27:12;12.40;99.90
13596;DHT22;6868;52.544;13.416;2022-10-13T08:29:43;12.40;99.90
13596;DHT22;6868;52.544;13.416;2022-10-13T08:32:10;12.50;99.90
13596;DHT22;6868;52.544;13.416;2022-10-13T08:34:36;12.50;99.90
13596;DHT22;6868;52.544;13.416;2022-10-13T08:37:05;12.50;99.90
13596;DHT22;6868;52.544;13.416;2022-10-13T08:39:33;12.60;99.90
13596;DHT22;6868;52.544;13.416;2022-10-13T08:42:10;12.60;99.90
13596;DHT22;6868;52.544;13.416;2022-10-13T08:44:38;12.70;99.90
13596;DHT22;6868;52.544;13.416;2022-10-13T21:13:21;12.80;99.90
13596;DHT22;6868;52.544;13.416;2022-10-13T21:15:47;11.80;99.90
13596;DHT22;6868;52.544;13.416;2022-10-13T21:18:15;11.70;99.90
13596;DHT22;6868;52.544;13.416;2022-10-13T21:20:42;11.70;99.90
13596;DHT22;6868;52.544;13.416;2022-10-13T21:23:12;11.60;99.90
13596;DHT22;6868;52.544;13.416;2022-10-13T21:25:42;11.60;99.90
13596;DHT22;6868;52.544;13.416;2022-10-13T21:28:09;11.60;99.90
13596;DHT22;6868;52.544;13.416;2022-10-13T21:30:37;11.60;99.90
13596;DHT22;6868;52.544;13.416;2022-10-13T21:33:04;11.60;99.90
13596;DHT22;6868;52.544;13.416;2022-10-13T21:35:31;11.50;99.90
13596;DHT22;6868;52.544;13.416;2022-10-13T21:37:57;11.50;99.90
13596;DHT22;6868;52.544;13.416;2022-10-13T21:40:24;11.50;99.90
13596;DHT22;6868;52.544;13.416;2022-10-13T21:42:51;11.50;99.90
13596;DHT22;6868;52.544;13.416;2022-10-13T21:45:32;11.50;99.90
13596;DHT22;6868;52.544;13.416;2022-10-13T21:48:00;11.40;99.90
13596;DHT22;6868;52.544;13.416;2022-10-13T21:50:26;11.40;99.90
13596;DHT22;6868;52.544;13.416;2022-10-13T21:52:53;11.30;99.90
13596;DHT22;6868;52.544;13.416;2022-10-13T21:55:21;11.40;99.90
13596;DHT22;6868;52.544;13.416;2022-10-13T21:57:47;11.40;99.90
13596;DHT22;6868;52.544;13.416;2022-10-13T22:00:14;11.30;99.90
13596;DHT22;6868;52.544;13.416;2022-10-13T22:02:41;11.30;99.90
13596;DHT22;6868;52.544;13.416;2022-10-13T22:05:09;11.40;99.90
13596;DHT22;6868;52.544;13.416;2022-10-13T22:07:36;11.30;99.90
13596;DHT22;6868;52.544;13.416;2022-10-13T22:10:03;11.30;99.90
13596;DHT22;6868;52.544;13.416;2022-10-13T22:12:30;11.30;99.90
13596;DHT22;6868;52.544;13.416;2022-10-13T22:14:56;11.30;99.90
13596;DHT22;6868;52.544;13.416;2022-10-13T22:17:23;11.30;99.90
13596;DHT22;6868;52.544;13.416;2022-10-13T22:19:50;11.30;99.90
13596;DHT22;6868;52.544;13.416;2022-10-13T22:22:18;11.20;99.90
13596;DHT22;6868;52.544;13.416;2022-10-13T22:24:45;11.30;99.90
13596;DHT22;6868;52.544;13.416;2022-10-13T22:27:11;11.30;99.90
13596;DHT22;6868;52.544;13.416;2022-10-13T22:29:38;11.30;99.90
13596;DHT22;6868;52.544;13.416;2022-10-13T22:32:05;11.30;99.90
13596;DHT22;6868;52.544;13.416;2022-10-13T22:34:31;11.30;99.90
13596;DHT22;6868;52.544;13.416;2022-10-13T22:36:58;11.30;99.90
13596;DHT22;6868;52.544;13.416;2022-10-13T22:39:26;11.30;99.90
13596;DHT22;6868;52.544;13.416;2022-10-13T22:41:53;11.20;99.90
13596;DHT22;6868;52.544;13.416;2022-10-13T22:44:19;11.20;99.90
13596;DHT22;6868;52.544;13.416;2022-10-13T22:46:46;11.20;99.90
13596;DHT22;6868;52.544;13.416;2022-10-13T22:49:16;11.20;99.90
13596;DHT22;6868;52.544;13.416;2022-10-13T22:51:48;11.20;99.90
13596;DHT22;6868;52.544;13.416;2022-10-13T22:54:15;11.20;99.90
13596;DHT22;6868;52.544;13.416;2022-10-13T22:56:43;11.20;99.90
13596;DHT22;6868;52.544;13.416;2022-10-13T22:59:10;11.30;99.90
13596;DHT22;6868;52.544;13.416;2022-10-13T23:01:38;11.30;99.90
13596;DHT22;6868;52.544;13.416;2022-10-13T23:04:05;11.30;99.90
13596;DHT22;6868;52.544;13.416;2022-10-13T23:06:32;11.30;99.90
13596;DHT22;6868;52.544;13.416;2022-10-13T23:08:59;11.30;99.90
13596;DHT22;6868;52.544;13.416;2022-10-13T23:11:26;11.20;99.90
13596;DHT22;6868;52.544;13.416;2022-10-13T23:13:54;11.20;99.90
13596;DHT22;6868;52.544;13.416;2022-10-13T23:16:22;11.10;99.90
13596;DHT22;6868;52.544;13.416;2022-10-13T23:18:49;11.20;99.90
13596;DHT22;6868;52.544;13.416;2022-10-13T23:21:17;11.20;99.90
13596;DHT22;6868;52.544;13.416;2022-10-13T23:23:44;11.10;99.90
13596;DHT22;6868;52.544;13.416;2022-10-13T23:26:12;11.10;99.90
13596;DHT22;6868;52.544;13.416;2022-10-13T23:28:39;11.10;99.90
13596;DHT22;6868;52.544;13.416;2022-10-13T23:31:09;11.00;99.90
13596;DHT22;6868;52.544;13.416;2022-10-13T23:33:36;11.00;99.90
13596;DHT22;6868;52.544;13.416;2022-10-13T23:36:03;11.00;99.90
13596;DHT22;6868;52.544;13.416;2022-10-13T23:38:31;10.90;99.90
13596;DHT22;6868;52.544;13.416;2022-10-13T23:41:02;10.90;99.90
13596;DHT22;6868;52.544;13.416;2022-10-13T23:43:31;10.90;99.90
13596;DHT22;6868;52.544;13.416;2022-10-13T23:45:58;10.80;99.90
13596;DHT22;6868;52.544;13.416;2022-10-13T23:48:27;10.80;99.90
13596;DHT22;6868;52.544;13.416;2022-10-13T23:50:54;10.80;99.90
13596;DHT22;6868;52.544;13.416;2022-10-13T23:53:21;10.70;99.90
13596;DHT22;6868;52.544;13.416;2022-10-13T23:55:48;10.70;99.90
13596;DHT22;6868;52.544;13.416;2022-10-13T23:58:15;10.70;99.90
